
Distance (Route):
Temperature : 20.9°C
Humidity : 0%
Pressure : 0hPa| Receiver | Frames | First received | Last received |
|---|---|---|---|
| KE7DJD | 208 | 2026-08-30 15:03:14 | 2026-08-30 16:16:15 |
| Receiver | Date | Latitude | Longitude | Direction | Speed | Altitude | Climb | Temperature | Humidity | Pressure | Voltage | Killtimer | Uptime | BKT | XDATA |
|---|---|---|---|---|---|---|---|---|---|---|---|---|---|---|---|
| KE7DJD | 2026-08-30 16:16:15 | 44.39493 | -117.38140 | 163° | 16km/h | 1312m | -5.7m/s | 20.9°C | 0% | 0hPa | 0V | 00:00:00 | 00:00:00 | 00:00:00 | |
| KE7DJD | 2026-08-30 16:15:55 | 44.39581 | -117.38159 | 175° | 15km/h | 1433m | -5.2m/s | 19.4°C | 0% | 0hPa | 0V | 00:00:00 | 00:00:00 | 00:00:00 | |
| KE7DJD | 2026-08-30 16:15:34 | 44.39658 | -117.38170 | 178° | 15km/h | 1537m | -5.2m/s | 18.3°C | 0% | 0hPa | 0V | 00:00:00 | 00:00:00 | 00:00:00 | |
| KE7DJD | 2026-08-30 16:15:14 | 44.39718 | -117.38174 | 220° | 7km/h | 1643m | -4.9m/s | 17.4°C | 0% | 0hPa | 0V | 00:00:00 | 00:00:00 | 00:00:00 | |
| KE7DJD | 2026-08-30 16:14:53 | 44.39746 | -117.38127 | 225° | 7km/h | 1734m | -4.0m/s | 17.2°C | 0% | 0hPa | 0V | 00:00:00 | 00:00:00 | 00:00:00 | |
| KE7DJD | 2026-08-30 16:14:32 | 44.39780 | -117.38100 | 198° | 5km/h | 1815m | -4.5m/s | 16.8°C | 0% | 0hPa | 0V | 00:00:00 | 00:00:00 | 00:00:00 | |
| KE7DJD | 2026-08-30 16:14:12 | 44.39801 | -117.38094 | 151° | 4km/h | 1902m | -4.6m/s | 16.5°C | 0% | 0hPa | 0V | 00:00:00 | 00:00:00 | 00:00:00 | |
| KE7DJD | 2026-08-30 16:13:51 | 44.39817 | -117.38108 | 139° | 5km/h | 1999m | -4.4m/s | 15.5°C | 0% | 0hPa | 0V | 00:00:00 | 00:00:00 | 00:00:00 | |
| KE7DJD | 2026-08-30 16:13:30 | 44.39828 | -117.38148 | 81° | 7km/h | 2113m | -5.6m/s | 14.4°C | 0% | 0hPa | 0V | 00:00:00 | 00:00:00 | 00:00:00 | |
| KE7DJD | 2026-08-30 16:13:10 | 44.39827 | -117.38203 | 91° | 11km/h | 2226m | -5.8m/s | 13.7°C | 0% | 0hPa | 0V | 00:00:00 | 00:00:00 | 00:00:00 | |
| KE7DJD | 2026-08-30 16:12:49 | 44.39818 | -117.38313 | 84° | 20km/h | 2353m | -6.1m/s | 14.4°C | 0% | 0hPa | 0V | 00:00:00 | 00:00:00 | 00:00:00 | |
| KE7DJD | 2026-08-30 16:12:29 | 44.39826 | -117.38445 | 108° | 18km/h | 2476m | -6.2m/s | 13.9°C | 0% | 0hPa | 0V | 00:00:00 | 00:00:00 | 00:00:00 | |
| KE7DJD | 2026-08-30 16:12:09 | 44.39863 | -117.38593 | 105° | 26km/h | 2602m | -5.9m/s | 13.3°C | 0% | 0hPa | 0V | 00:00:00 | 00:00:00 | 00:00:00 | |
| KE7DJD | 2026-08-30 16:11:47 | 44.39895 | -117.38803 | 108° | 31km/h | 2729m | -5.8m/s | 13.6°C | 0% | 0hPa | 0V | 00:00:00 | 00:00:00 | 00:00:00 | |
| KE7DJD | 2026-08-30 16:11:26 | 44.39953 | -117.39013 | 116° | 31km/h | 2849m | -5.5m/s | 13.7°C | 0% | 0hPa | 0V | 00:00:00 | 00:00:00 | 00:00:00 | |
| KE7DJD | 2026-08-30 16:11:06 | 44.40027 | -117.39213 | 119° | 29km/h | 2970m | -5.8m/s | 12.8°C | 0% | 0hPa | 0V | 00:00:00 | 00:00:00 | 00:00:00 | |
| KE7DJD | 2026-08-30 16:10:45 | 44.40084 | -117.39420 | 108° | 29km/h | 3096m | -5.8m/s | 12.0°C | 0% | 0hPa | 0V | 00:00:00 | 00:00:00 | 00:00:00 | |
| KE7DJD | 2026-08-30 16:10:24 | 44.40124 | -117.39619 | 104° | 29km/h | 3212m | -5.5m/s | 10.8°C | 0% | 0hPa | 0V | 00:00:00 | 00:00:00 | 00:00:00 | |
| KE7DJD | 2026-08-30 16:10:04 | 44.40140 | -117.39840 | 93° | 31km/h | 3326m | -5.0m/s | 10.2°C | 0% | 0hPa | 0V | 00:00:00 | 00:00:00 | 00:00:00 | |
| KE7DJD | 2026-08-30 16:09:43 | 44.40141 | -117.40063 | 91° | 33km/h | 3428m | -5.0m/s | 9.6°C | 0% | 0hPa | 0V | 00:00:00 | 00:00:00 | 00:00:00 | |
| KE7DJD | 2026-08-30 16:09:23 | 44.40136 | -117.40307 | 89° | 37km/h | 3536m | -5.5m/s | 9.2°C | 0% | 0hPa | 0V | 00:00:00 | 00:00:00 | 00:00:00 | |
| KE7DJD | 2026-08-30 16:09:02 | 44.40133 | -117.40559 | 92° | 29km/h | 3641m | -5.3m/s | 9.4°C | 0% | 0hPa | 0V | 00:00:00 | 00:00:00 | 00:00:00 | |
| KE7DJD | 2026-08-30 16:08:42 | 44.40142 | -117.40771 | 95° | 29km/h | 3751m | -5.4m/s | 8.7°C | 0% | 0hPa | 0V | 00:00:00 | 00:00:00 | 00:00:00 | |
| KE7DJD | 2026-08-30 16:08:20 | 44.40158 | -117.40986 | 103° | 29km/h | 3861m | -5.1m/s | 8.1°C | 0% | 0hPa | 0V | 00:00:00 | 00:00:00 | 00:00:00 | |
| KE7DJD | 2026-08-30 16:08:00 | 44.40199 | -117.41173 | 109° | 27km/h | 3970m | -5.3m/s | 7.6°C | 0% | 0hPa | 0V | 00:00:00 | 00:00:00 | 00:00:00 | |
| KE7DJD | 2026-08-30 16:07:40 | 44.40237 | -117.41360 | 105° | 27km/h | 4088m | -5.5m/s | 6.4°C | 0% | 0hPa | 0V | 00:00:00 | 00:00:00 | 00:00:00 | |
| KE7DJD | 2026-08-30 16:07:19 | 44.40269 | -117.41542 | 101° | 27km/h | 4199m | -5.5m/s | 5.4°C | 0% | 0hPa | 0V | 00:00:00 | 00:00:00 | 00:00:00 | |
| KE7DJD | 2026-08-30 16:06:59 | 44.40298 | -117.41730 | 110° | 27km/h | 4317m | -5.6m/s | 4.4°C | 0% | 0hPa | 0V | 00:00:00 | 00:00:00 | 00:00:00 | |
| KE7DJD | 2026-08-30 16:06:38 | 44.40351 | -117.41916 | 115° | 29km/h | 4429m | -5.6m/s | 4.0°C | 0% | 0hPa | 0V | 00:00:00 | 00:00:00 | 00:00:00 | |
| KE7DJD | 2026-08-30 16:06:18 | 44.40420 | -117.42121 | 118° | 35km/h | 4545m | -5.6m/s | 3.6°C | 0% | 0hPa | 0V | 00:00:00 | 00:00:00 | 00:00:00 | |
| KE7DJD | 2026-08-30 16:05:57 | 44.40511 | -117.42355 | 119° | 42km/h | 4656m | -5.5m/s | 3.0°C | 0% | 0hPa | 0V | 00:00:00 | 00:00:00 | 00:00:00 | |
| KE7DJD | 2026-08-30 16:05:37 | 44.40612 | -117.42653 | 116° | 46km/h | 4773m | -5.4m/s | 2.3°C | 0% | 0hPa | 0V | 00:00:00 | 00:00:00 | 00:00:00 | |
| KE7DJD | 2026-08-30 16:05:15 | 44.40725 | -117.42962 | 119° | 47km/h | 4889m | -5.4m/s | 1.3°C | 0% | 0hPa | 0V | 00:00:00 | 00:00:00 | 00:00:00 | |
| KE7DJD | 2026-08-30 16:04:54 | 44.40843 | -117.43256 | 122° | 44km/h | 5004m | -5.4m/s | 0.3°C | 0% | 0hPa | 0V | 00:00:00 | 00:00:00 | 00:00:00 | |
| KE7DJD | 2026-08-30 16:04:34 | 44.40975 | -117.43558 | 121° | 51km/h | 5118m | -5.5m/s | -0.5°C | 0% | 0hPa | 0V | 00:00:00 | 00:00:00 | 00:00:00 | |
| KE7DJD | 2026-08-30 16:04:13 | 44.41120 | -117.43909 | 121° | 57km/h | 5229m | -5.0m/s | -1.0°C | 0% | 0hPa | 0V | 00:00:00 | 00:00:00 | 00:00:00 | |
| KE7DJD | 2026-08-30 16:03:52 | 44.41262 | -117.44256 | 122° | 55km/h | 5333m | -5.2m/s | -1.8°C | 0% | 0hPa | 0V | 00:00:00 | 00:00:00 | 00:00:00 | |
| KE7DJD | 2026-08-30 16:03:32 | 44.41412 | -117.44594 | 123° | 51km/h | 5443m | -5.1m/s | -2.7°C | 0% | 0hPa | 0V | 00:00:00 | 00:00:00 | 00:00:00 | |
| KE7DJD | 2026-08-30 16:03:11 | 44.41547 | -117.44888 | 122° | 46km/h | 5547m | -5.0m/s | -3.4°C | 0% | 0hPa | 0V | 00:00:00 | 00:00:00 | 00:00:00 | |
| KE7DJD | 2026-08-30 16:02:29 | 44.41795 | -117.45444 | 131° | 44km/h | 5769m | -5.5m/s | -4.0°C | 0% | 0hPa | 0V | 00:00:00 | 00:00:00 | 00:00:00 | |
| KE7DJD | 2026-08-30 16:02:09 | 44.41958 | -117.45700 | 130° | 53km/h | 5877m | -5.2m/s | -4.3°C | 0% | 0hPa | 0V | 00:00:00 | 00:00:00 | 00:00:00 | |
| KE7DJD | 2026-08-30 16:01:48 | 44.42121 | -117.46031 | 122° | 55km/h | 5990m | -5.3m/s | -5.0°C | 0% | 0hPa | 0V | 00:00:00 | 00:00:00 | 00:00:00 | |
| KE7DJD | 2026-08-30 16:01:28 | 44.42268 | -117.46363 | 122° | 55km/h | 6098m | -5.4m/s | -5.8°C | 0% | 0hPa | 0V | 00:00:00 | 00:00:00 | 00:00:00 | |
| KE7DJD | 2026-08-30 16:01:08 | 44.42414 | -117.46743 | 118° | 58km/h | 6215m | -5.8m/s | -6.6°C | 0% | 0hPa | 0V | 00:00:00 | 00:00:00 | 00:00:00 | |
| KE7DJD | 2026-08-30 16:00:47 | 44.42550 | -117.47132 | 117° | 64km/h | 6328m | -5.6m/s | -7.6°C | 0% | 0hPa | 0V | 00:00:00 | 00:00:00 | 00:00:00 | |
| KE7DJD | 2026-08-30 16:00:26 | 44.42697 | -117.47572 | 115° | 66km/h | 6448m | -5.7m/s | -8.5°C | 0% | 0hPa | 0V | 00:00:00 | 00:00:00 | 00:00:00 | |
| KE7DJD | 2026-08-30 16:00:06 | 44.42832 | -117.48009 | 114° | 68km/h | 6564m | -6.0m/s | -9.3°C | 0% | 0hPa | 0V | 00:00:00 | 00:00:00 | 00:00:00 | |
| KE7DJD | 2026-08-30 15:59:46 | 44.42993 | -117.48465 | 120° | 68km/h | 6687m | -6.1m/s | -10.0°C | 0% | 0hPa | 0V | 00:00:00 | 00:00:00 | 00:00:00 | |
| KE7DJD | 2026-08-30 15:59:25 | 44.43171 | -117.48868 | 124° | 66km/h | 6807m | -6.1m/s | -11.0°C | 0% | 0hPa | 0V | 00:00:00 | 00:00:00 | 00:00:00 | |
| KE7DJD | 2026-08-30 15:59:05 | 44.43382 | -117.49257 | 128° | 68km/h | 6934m | -6.2m/s | -11.9°C | 0% | 0hPa | 0V | 00:00:00 | 00:00:00 | 00:00:00 | |
| KE7DJD | 2026-08-30 15:58:43 | 44.43587 | -117.49659 | 125° | 66km/h | 7063m | -6.3m/s | -13.0°C | 0% | 0hPa | 0V | 00:00:00 | 00:00:00 | 00:00:00 | |
| KE7DJD | 2026-08-30 15:58:22 | 44.43776 | -117.50072 | 123° | 66km/h | 7193m | -6.2m/s | -14.1°C | 0% | 0hPa | 0V | 00:00:00 | 00:00:00 | 00:00:00 | |
| KE7DJD | 2026-08-30 15:58:02 | 44.43981 | -117.50482 | 127° | 69km/h | 7324m | -6.2m/s | -15.1°C | 0% | 0hPa | 0V | 00:00:00 | 00:00:00 | 00:00:00 | |
| KE7DJD | 2026-08-30 15:57:41 | 44.44194 | -117.50916 | 123° | 69km/h | 7456m | -6.3m/s | -16.2°C | 0% | 0hPa | 0V | 00:00:00 | 00:00:00 | 00:00:00 | |
| KE7DJD | 2026-08-30 15:57:20 | 44.44372 | -117.51348 | 120° | 69km/h | 7582m | -6.5m/s | -17.1°C | 0% | 0hPa | 0V | 00:00:00 | 00:00:00 | 00:00:00 | |
| KE7DJD | 2026-08-30 15:57:00 | 44.44543 | -117.51821 | 116° | 73km/h | 7717m | -6.4m/s | -18.2°C | 0% | 0hPa | 0V | 00:00:00 | 00:00:00 | 00:00:00 | |
| KE7DJD | 2026-08-30 15:56:39 | 44.44685 | -117.52297 | 111° | 73km/h | 7846m | -6.7m/s | -19.3°C | 0% | 0hPa | 0V | 00:00:00 | 00:00:00 | 00:00:00 | |
| KE7DJD | 2026-08-30 15:56:19 | 44.44830 | -117.52819 | 113° | 77km/h | 7982m | -6.6m/s | -20.5°C | 0% | 0hPa | 0V | 00:00:00 | 00:00:00 | 00:00:00 | |
| KE7DJD | 2026-08-30 15:55:57 | 44.44983 | -117.53361 | 115° | 80km/h | 8119m | -6.5m/s | -21.6°C | 0% | 0hPa | 0V | 00:00:00 | 00:00:00 | 00:00:00 | |
| KE7DJD | 2026-08-30 15:55:37 | 44.45153 | -117.53865 | 117° | 78km/h | 8250m | -6.4m/s | -22.9°C | 0% | 0hPa | 0V | 00:00:00 | 00:00:00 | 00:00:00 | |
| KE7DJD | 2026-08-30 15:55:16 | 44.45352 | -117.54375 | 122° | 77km/h | 8388m | -6.6m/s | -24.0°C | 0% | 0hPa | 0V | 00:00:00 | 00:00:00 | 00:00:00 | |
| KE7DJD | 2026-08-30 15:54:56 | 44.45557 | -117.54861 | 120° | 80km/h | 8522m | -6.6m/s | -25.0°C | 0% | 0hPa | 0V | 00:00:00 | 00:00:00 | 00:00:00 | |
| KE7DJD | 2026-08-30 15:54:36 | 44.45785 | -117.55352 | 128° | 82km/h | 8665m | -6.9m/s | -26.1°C | 0% | 0hPa | 0V | 00:00:00 | 00:00:00 | 00:00:00 | |
| KE7DJD | 2026-08-30 15:54:15 | 44.46045 | -117.55823 | 131° | 82km/h | 8802m | -6.8m/s | -27.1°C | 0% | 0hPa | 0V | 00:00:00 | 00:00:00 | 00:00:00 | |
| KE7DJD | 2026-08-30 15:53:55 | 44.46338 | -117.56301 | 133° | 82km/h | 8946m | -6.8m/s | -28.3°C | 0% | 0hPa | 0V | 00:00:00 | 00:00:00 | 00:00:00 | |
| KE7DJD | 2026-08-30 15:53:34 | 44.46645 | -117.56743 | 135° | 89km/h | 9084m | -7.0m/s | -29.0°C | 0% | 0hPa | 0V | 00:00:00 | 00:00:00 | 00:00:00 | |
| KE7DJD | 2026-08-30 15:53:14 | 44.47008 | -117.57219 | 139° | 95km/h | 9233m | -6.9m/s | -30.1°C | 0% | 0hPa | 0V | 00:00:00 | 00:00:00 | 00:00:00 | |
| KE7DJD | 2026-08-30 15:52:53 | 44.47403 | -117.57711 | 140° | 99km/h | 9378m | -6.9m/s | -30.9°C | 0% | 0hPa | 0V | 00:00:00 | 00:00:00 | 00:00:00 | |
| KE7DJD | 2026-08-30 15:52:33 | 44.47782 | -117.58175 | 140° | 99km/h | 9520m | -7.2m/s | -32.2°C | 0% | 0hPa | 0V | 00:00:00 | 00:00:00 | 00:00:00 | |
| KE7DJD | 2026-08-30 15:52:12 | 44.48171 | -117.58619 | 144° | 100km/h | 9660m | -7.0m/s | -33.5°C | 0% | 0hPa | 0V | 00:00:00 | 00:00:00 | 00:00:00 | |
| KE7DJD | 2026-08-30 15:51:52 | 44.48616 | -117.59054 | 147° | 104km/h | 9809m | -7.4m/s | -34.7°C | 0% | 0hPa | 0V | 00:00:00 | 00:00:00 | 00:00:00 | |
| KE7DJD | 2026-08-30 15:51:31 | 44.49050 | -117.59465 | 148° | 102km/h | 9953m | -7.1m/s | -35.9°C | 0% | 0hPa | 0V | 00:00:00 | 00:00:00 | 00:00:00 | |
| KE7DJD | 2026-08-30 15:51:11 | 44.49512 | -117.59892 | 148° | 106km/h | 10107m | -7.5m/s | -37.2°C | 0% | 0hPa | 0V | 00:00:00 | 00:00:00 | 00:00:00 | |
| KE7DJD | 2026-08-30 15:50:49 | 44.49983 | -117.60332 | 148° | 108km/h | 10260m | -7.5m/s | -38.5°C | 0% | 0hPa | 0V | 00:00:00 | 00:00:00 | 00:00:00 | |
| KE7DJD | 2026-08-30 15:50:29 | 44.50453 | -117.60749 | 149° | 111km/h | 10408m | -7.2m/s | -39.7°C | 0% | 0hPa | 0V | 00:00:00 | 00:00:00 | 00:00:00 | |
| KE7DJD | 2026-08-30 15:50:08 | 44.50954 | -117.61190 | 149° | 113km/h | 10566m | -7.4m/s | -41.1°C | 0% | 0hPa | 0V | 00:00:00 | 00:00:00 | 00:00:00 | |
| KE7DJD | 2026-08-30 15:49:48 | 44.51436 | -117.61643 | 147° | 115km/h | 10719m | -7.7m/s | -42.3°C | 0% | 0hPa | 0V | 00:00:00 | 00:00:00 | 00:00:00 | |
| KE7DJD | 2026-08-30 15:49:28 | 44.51948 | -117.62125 | 148° | 119km/h | 10882m | -7.9m/s | -43.5°C | 0% | 0hPa | 0V | 00:00:00 | 00:00:00 | 00:00:00 | |
| KE7DJD | 2026-08-30 15:49:07 | 44.52438 | -117.62579 | 147° | 115km/h | 11040m | -7.8m/s | -45.0°C | 0% | 0hPa | 0V | 00:00:00 | 00:00:00 | 00:00:00 | |
| KE7DJD | 2026-08-30 15:48:47 | 44.52952 | -117.63071 | 147° | 117km/h | 11207m | -8.0m/s | -46.6°C | 0% | 0hPa | 0V | 00:00:00 | 00:00:00 | 00:00:00 | |
| KE7DJD | 2026-08-30 15:48:26 | 44.53421 | -117.63526 | 144° | 115km/h | 11366m | -8.0m/s | -47.5°C | 0% | 0hPa | 0V | 00:00:00 | 00:00:00 | 00:00:00 | |
| KE7DJD | 2026-08-30 15:48:06 | 44.53891 | -117.64022 | 145° | 104km/h | 11538m | -7.9m/s | -48.4°C | 0% | 0hPa | 0V | 00:00:00 | 00:00:00 | 00:00:00 | |
| KE7DJD | 2026-08-30 15:47:45 | 44.54285 | -117.64439 | 141° | 89km/h | 11698m | -8.0m/s | -49.1°C | 0% | 0hPa | 0V | 00:00:00 | 00:00:00 | 00:00:00 | |
| KE7DJD | 2026-08-30 15:47:25 | 44.54618 | -117.64880 | 135° | 88km/h | 11868m | -7.9m/s | -48.2°C | 0% | 0hPa | 0V | 00:00:00 | 00:00:00 | 00:00:00 | |
| KE7DJD | 2026-08-30 15:47:04 | 44.54918 | -117.65340 | 133° | 91km/h | 12031m | -7.9m/s | -49.3°C | 0% | 0hPa | 0V | 00:00:00 | 00:00:00 | 00:00:00 | |
| KE7DJD | 2026-08-30 15:46:44 | 44.55230 | -117.65865 | 130° | 91km/h | 12203m | -7.9m/s | -49.6°C | 0% | 0hPa | 0V | 00:00:00 | 00:00:00 | 00:00:00 | |
| KE7DJD | 2026-08-30 15:46:23 | 44.55478 | -117.66376 | 120° | 86km/h | 12368m | -8.3m/s | -48.3°C | 0% | 0hPa | 0V | 00:00:00 | 00:00:00 | 00:00:00 | |
| KE7DJD | 2026-08-30 15:46:03 | 44.55723 | -117.66962 | 127° | 91km/h | 12543m | -8.3m/s | -47.3°C | 0% | 0hPa | 0V | 00:00:00 | 00:00:00 | 00:00:00 | |
| KE7DJD | 2026-08-30 15:45:42 | 44.56008 | -117.67432 | 132° | 75km/h | 12719m | -8.2m/s | -47.3°C | 0% | 0hPa | 0V | 00:00:00 | 00:00:00 | 00:00:00 | |
| KE7DJD | 2026-08-30 15:45:21 | 44.56247 | -117.67822 | 129° | 71km/h | 12887m | -8.5m/s | -48.3°C | 0% | 0hPa | 0V | 00:00:00 | 00:00:00 | 00:00:00 | |
| KE7DJD | 2026-08-30 15:45:00 | 44.56466 | -117.68280 | 119° | 77km/h | 13070m | -8.8m/s | -47.8°C | 0% | 0hPa | 0V | 00:00:00 | 00:00:00 | 00:00:00 | |
| KE7DJD | 2026-08-30 15:44:40 | 44.56630 | -117.68729 | 117° | 68km/h | 13248m | -9.0m/s | -47.8°C | 0% | 0hPa | 0V | 00:00:00 | 00:00:00 | 00:00:00 | |
| KE7DJD | 2026-08-30 15:44:20 | 44.56781 | -117.69179 | 119° | 66km/h | 13440m | -9.4m/s | -47.1°C | 0% | 0hPa | 0V | 00:00:00 | 00:00:00 | 00:00:00 | |
| KE7DJD | 2026-08-30 15:43:59 | 44.56939 | -117.69610 | 111° | 64km/h | 13635m | -9.2m/s | -47.0°C | 0% | 0hPa | 0V | 00:00:00 | 00:00:00 | 00:00:00 | |
| KE7DJD | 2026-08-30 15:43:38 | 44.57045 | -117.70036 | 112° | 62km/h | 13825m | -9.6m/s | -46.9°C | 0% | 0hPa | 0V | 00:00:00 | 00:00:00 | 00:00:00 | |
| KE7DJD | 2026-08-30 15:43:18 | 44.57130 | -117.70392 | 102° | 49km/h | 14021m | -9.7m/s | -47.1°C | 0% | 0hPa | 0V | 00:00:00 | 00:00:00 | 00:00:00 | |
| KE7DJD | 2026-08-30 15:42:58 | 44.57188 | -117.70786 | 107° | 58km/h | 14231m | -10.2m/s | -47.9°C | 0% | 0hPa | 0V | 00:00:00 | 00:00:00 | 00:00:00 | |
| KE7DJD | 2026-08-30 15:42:37 | 44.57263 | -117.71207 | 105° | 58km/h | 14438m | -9.9m/s | -47.4°C | 0% | 0hPa | 0V | 00:00:00 | 00:00:00 | 00:00:00 | |
| KE7DJD | 2026-08-30 15:42:17 | 44.57342 | -117.71609 | 109° | 55km/h | 14660m | -10.4m/s | -47.0°C | 0% | 0hPa | 0V | 00:00:00 | 00:00:00 | 00:00:00 | |
| KE7DJD | 2026-08-30 15:41:56 | 44.57411 | -117.71934 | 102° | 42km/h | 14871m | -10.5m/s | -47.1°C | 0% | 0hPa | 0V | 00:00:00 | 00:00:00 | 00:00:00 | |
| KE7DJD | 2026-08-30 15:41:36 | 44.57405 | -117.72200 | 76° | 31km/h | 15097m | -10.5m/s | -47.7°C | 0% | 0hPa | 0V | 00:00:00 | 00:00:00 | 00:00:00 | |
| KE7DJD | 2026-08-30 15:41:15 | 44.57339 | -117.72431 | 70° | 42km/h | 15310m | -10.6m/s | -48.7°C | 0% | 0hPa | 0V | 00:00:00 | 00:00:00 | 00:00:00 | |
| KE7DJD | 2026-08-30 15:40:55 | 44.57257 | -117.72773 | 73° | 53km/h | 15542m | -10.8m/s | -49.1°C | 0% | 0hPa | 0V | 00:00:00 | 00:00:00 | 00:00:00 | |
| KE7DJD | 2026-08-30 15:40:33 | 44.57206 | -117.73169 | 84° | 47km/h | 15779m | -10.9m/s | -47.3°C | 0% | 0hPa | 0V | 00:00:00 | 00:00:00 | 00:00:00 | |
| KE7DJD | 2026-08-30 15:40:13 | 44.57134 | -117.73468 | 63° | 53km/h | 16016m | -13.8m/s | -48.0°C | 0% | 0hPa | 0V | 00:00:00 | 00:00:00 | 00:00:00 | |
| KE7DJD | 2026-08-30 15:39:32 | 44.56953 | -117.74181 | 64° | 53km/h | 16384m | -6.6m/s | -47.4°C | 0% | 0hPa | 0V | 00:00:00 | 00:00:00 | 00:00:00 | |
| KE7DJD | 2026-08-30 15:39:12 | 44.56826 | -117.74563 | 80° | 55km/h | 16538m | -7.5m/s | -47.5°C | 0% | 0hPa | 0V | 00:00:00 | 00:00:00 | 00:00:00 | |
| KE7DJD | 2026-08-30 15:38:51 | 44.56747 | -117.74914 | 61° | 49km/h | 16713m | -9.1m/s | -46.9°C | 0% | 0hPa | 0V | 00:00:00 | 00:00:00 | 00:00:00 | |
| KE7DJD | 2026-08-30 15:38:31 | 44.56660 | -117.75296 | 76° | 58km/h | 16878m | -6.3m/s | -45.7°C | 0% | 0hPa | 0V | 00:00:00 | 00:00:00 | 00:00:00 | |
| KE7DJD | 2026-08-30 15:38:10 | 44.56603 | -117.75658 | 81° | 49km/h | 17023m | -7.4m/s | -44.8°C | 0% | 0hPa | 0V | 00:00:00 | 00:00:00 | 00:00:00 | |
| KE7DJD | 2026-08-30 15:37:50 | 44.56567 | -117.75906 | 61° | 26km/h | 17183m | -7.1m/s | -43.6°C | 0% | 0hPa | 0V | 00:00:00 | 00:00:00 | 00:00:00 | |
| KE7DJD | 2026-08-30 15:37:29 | 44.56478 | -117.76047 | 37° | 29km/h | 17326m | -6.7m/s | -44.2°C | 0% | 0hPa | 0V | 00:00:00 | 00:00:00 | 00:00:00 | |
| KE7DJD | 2026-08-30 15:37:09 | 44.56327 | -117.76133 | 9° | 29km/h | 17481m | -7.6m/s | -45.4°C | 0% | 0hPa | 0V | 00:00:00 | 00:00:00 | 00:00:00 | |
| KE7DJD | 2026-08-30 15:36:48 | 44.56151 | -117.76220 | 28° | 44km/h | 17640m | -7.5m/s | -46.2°C | 0% | 0hPa | 0V | 00:00:00 | 00:00:00 | 00:00:00 | |
| KE7DJD | 2026-08-30 15:36:28 | 44.55984 | -117.76385 | 49° | 38km/h | 17786m | -7.6m/s | -46.6°C | 0% | 0hPa | 0V | 00:00:00 | 00:00:00 | 00:00:00 | |
| KE7DJD | 2026-08-30 15:36:07 | 44.55860 | -117.76622 | 50° | 38km/h | 17936m | -7.6m/s | -46.3°C | 0% | 0hPa | 0V | 00:00:00 | 00:00:00 | 00:00:00 | |
| KE7DJD | 2026-08-30 15:35:47 | 44.55778 | -117.76849 | 75° | 37km/h | 18103m | -7.3m/s | -46.8°C | 0% | 0hPa | 0V | 00:00:00 | 00:00:00 | 00:00:00 | |
| KE7DJD | 2026-08-30 15:35:25 | 44.55733 | -117.77042 | 72° | 18km/h | 18274m | -8.2m/s | -47.0°C | 0% | 0hPa | 0V | 00:00:00 | 00:00:00 | 00:00:00 | |
| KE7DJD | 2026-08-30 15:35:05 | 44.55747 | -117.77166 | 93° | 22km/h | 18445m | -8.4m/s | -47.5°C | 0% | 0hPa | 0V | 00:00:00 | 00:00:00 | 00:00:00 | |
| KE7DJD | 2026-08-30 15:34:45 | 44.55752 | -117.77260 | 90° | 11km/h | 18646m | -11.0m/s | -48.7°C | 0% | 0hPa | 0V | 00:00:00 | 00:00:00 | 00:00:00 | |
| KE7DJD | 2026-08-30 15:34:24 | 44.55728 | -117.77279 | 260° | 22km/h | 18851m | -10.4m/s | -49.2°C | 0% | 0hPa | 0V | 00:00:00 | 00:00:00 | 00:00:00 | |
| KE7DJD | 2026-08-30 15:34:03 | 44.55643 | -117.77330 | 45° | 26km/h | 19083m | -5.7m/s | -49.8°C | 0% | 0hPa | 0V | 00:00:00 | 00:00:00 | 00:00:00 | |
| KE7DJD | 2026-08-30 15:33:43 | 44.55549 | -117.77438 | 57° | 26km/h | 18970m | 3.8m/s | -49.5°C | 0% | 0hPa | 0V | 00:00:00 | 00:00:00 | 00:00:00 | |
| KE7DJD | 2026-08-30 15:33:23 | 44.55497 | -117.77468 | 333° | 22km/h | 18833m | 7.3m/s | -49.2°C | 0% | 0hPa | 0V | 00:00:00 | 00:00:00 | 00:00:00 | |
| KE7DJD | 2026-08-30 15:33:02 | 44.55481 | -117.77468 | 0° | 0km/h | 18697m | 7.6m/s | -49.0°C | 0% | 0hPa | 0V | 00:00:00 | 00:00:00 | 00:00:00 | |
| KE7DJD | 2026-08-30 15:32:42 | 44.55467 | -117.77555 | 122° | 7km/h | 18566m | 4.0m/s | -48.4°C | 0% | 0hPa | 0V | 00:00:00 | 00:00:00 | 00:00:00 | |
| KE7DJD | 2026-08-30 15:32:21 | 44.55474 | -117.77675 | 96° | 11km/h | 18446m | 4.8m/s | -47.6°C | 0% | 0hPa | 0V | 00:00:00 | 00:00:00 | 00:00:00 | |
| KE7DJD | 2026-08-30 15:32:01 | 44.55492 | -117.77808 | 74° | 15km/h | 18316m | 3.7m/s | -47.6°C | 0% | 0hPa | 0V | 00:00:00 | 00:00:00 | 00:00:00 | |
| KE7DJD | 2026-08-30 15:31:40 | 44.55458 | -117.77984 | 67° | 27km/h | 18179m | 7.1m/s | -47.5°C | 0% | 0hPa | 0V | 00:00:00 | 00:00:00 | 00:00:00 | |
| KE7DJD | 2026-08-30 15:31:20 | 44.55404 | -117.78216 | 56° | 40km/h | 18035m | 4.8m/s | -47.0°C | 0% | 0hPa | 0V | 00:00:00 | 00:00:00 | 00:00:00 | |
| KE7DJD | 2026-08-30 15:30:59 | 44.55301 | -117.78432 | 52° | 46km/h | 17911m | 4.0m/s | -46.9°C | 0% | 0hPa | 0V | 00:00:00 | 00:00:00 | 00:00:00 | |
| KE7DJD | 2026-08-30 15:30:39 | 44.55157 | -117.78662 | 46° | 40km/h | 17784m | 6.8m/s | -46.9°C | 0% | 0hPa | 0V | 00:00:00 | 00:00:00 | 00:00:00 | |
| KE7DJD | 2026-08-30 15:30:18 | 44.54998 | -117.78835 | 15° | 40km/h | 17654m | 8.0m/s | -46.6°C | 0% | 0hPa | 0V | 00:00:00 | 00:00:00 | 00:00:00 | |
| KE7DJD | 2026-08-30 15:29:58 | 44.54817 | -117.78928 | 35° | 29km/h | 17512m | 7.4m/s | -45.7°C | 0% | 0hPa | 0V | 00:00:00 | 00:00:00 | 00:00:00 | |
| KE7DJD | 2026-08-30 15:29:36 | 44.54693 | -117.79047 | 34° | 27km/h | 17360m | 8.8m/s | -45.0°C | 0% | 0hPa | 0V | 00:00:00 | 00:00:00 | 00:00:00 | |
| KE7DJD | 2026-08-30 15:29:16 | 44.54632 | -117.79166 | 78° | 31km/h | 17238m | 9.7m/s | -44.4°C | 0% | 0hPa | 0V | 00:00:00 | 00:00:00 | 00:00:00 | |
| KE7DJD | 2026-08-30 15:28:56 | 44.54607 | -117.79429 | 85° | 44km/h | 17108m | 9.4m/s | -45.9°C | 0% | 0hPa | 0V | 00:00:00 | 00:00:00 | 00:00:00 | |
| KE7DJD | 2026-08-30 15:28:35 | 44.54556 | -117.79780 | 78° | 57km/h | 16986m | 5.9m/s | -46.2°C | 0% | 0hPa | 0V | 00:00:00 | 00:00:00 | 00:00:00 | |
| KE7DJD | 2026-08-30 15:28:14 | 44.54465 | -117.80120 | 77° | 47km/h | 16859m | 3.3m/s | -46.4°C | 0% | 0hPa | 0V | 00:00:00 | 00:00:00 | 00:00:00 | |
| KE7DJD | 2026-08-30 15:27:54 | 44.54366 | -117.80414 | 58° | 46km/h | 16730m | 6.2m/s | -47.0°C | 0% | 0hPa | 0V | 00:00:00 | 00:00:00 | 00:00:00 | |
| KE7DJD | 2026-08-30 15:27:34 | 44.54279 | -117.80696 | 72° | 46km/h | 16600m | 6.4m/s | -46.9°C | 0% | 0hPa | 0V | 00:00:00 | 00:00:00 | 00:00:00 | |
| KE7DJD | 2026-08-30 15:27:13 | 44.54193 | -117.81002 | 69° | 49km/h | 16456m | 5.4m/s | -47.3°C | 0% | 0hPa | 0V | 00:00:00 | 00:00:00 | 00:00:00 | |
| KE7DJD | 2026-08-30 15:26:52 | 44.54072 | -117.81316 | 69° | 40km/h | 16321m | 4.1m/s | -47.0°C | 0% | 0hPa | 0V | 00:00:00 | 00:00:00 | 00:00:00 | |
| KE7DJD | 2026-08-30 15:26:32 | 44.53986 | -117.81590 | 75° | 42km/h | 16189m | 4.5m/s | -47.3°C | 0% | 0hPa | 0V | 00:00:00 | 00:00:00 | 00:00:00 | |
| KE7DJD | 2026-08-30 15:26:12 | 44.53912 | -117.81891 | 64° | 44km/h | 16062m | 5.0m/s | -47.7°C | 0% | 0hPa | 0V | 00:00:00 | 00:00:00 | 00:00:00 | |
| KE7DJD | 2026-08-30 15:25:51 | 44.53818 | -117.82214 | 54° | 35km/h | 15940m | 4.9m/s | -47.1°C | 0% | 0hPa | 0V | 00:00:00 | 00:00:00 | 00:00:00 | |
| KE7DJD | 2026-08-30 15:25:31 | 44.53726 | -117.82469 | 73° | 47km/h | 15798m | 8.0m/s | -46.1°C | 0% | 0hPa | 0V | 00:00:00 | 00:00:00 | 00:00:00 | |
| KE7DJD | 2026-08-30 15:25:10 | 44.53703 | -117.82732 | 95° | 38km/h | 15666m | 4.2m/s | -46.2°C | 0% | 0hPa | 0V | 00:00:00 | 00:00:00 | 00:00:00 | |
| KE7DJD | 2026-08-30 15:24:50 | 44.53682 | -117.83105 | 82° | 58km/h | 15537m | 4.5m/s | -47.8°C | 0% | 0hPa | 0V | 00:00:00 | 00:00:00 | 00:00:00 | |
| KE7DJD | 2026-08-30 15:24:29 | 44.53616 | -117.83495 | 68° | 46km/h | 15407m | 4.9m/s | -48.3°C | 0% | 0hPa | 0V | 00:00:00 | 00:00:00 | 00:00:00 | |
| KE7DJD | 2026-08-30 15:24:08 | 44.53559 | -117.83829 | 78° | 47km/h | 15282m | 7.2m/s | -48.3°C | 0% | 0hPa | 0V | 00:00:00 | 00:00:00 | 00:00:00 | |
| KE7DJD | 2026-08-30 15:23:47 | 44.53494 | -117.84122 | 91° | 38km/h | 15130m | 7.2m/s | -47.8°C | 0% | 0hPa | 0V | 00:00:00 | 00:00:00 | 00:00:00 | |
| KE7DJD | 2026-08-30 15:23:27 | 44.53480 | -117.84367 | 94° | 44km/h | 15009m | 7.5m/s | -47.4°C | 0% | 0hPa | 0V | 00:00:00 | 00:00:00 | 00:00:00 | |
| KE7DJD | 2026-08-30 15:23:07 | 44.53510 | -117.84681 | 105° | 46km/h | 14886m | 5.9m/s | -47.5°C | 0% | 0hPa | 0V | 00:00:00 | 00:00:00 | 00:00:00 | |
| KE7DJD | 2026-08-30 15:22:46 | 44.53575 | -117.85036 | 120° | 44km/h | 14751m | 5.2m/s | -47.2°C | 0% | 0hPa | 0V | 00:00:00 | 00:00:00 | 00:00:00 | |
| KE7DJD | 2026-08-30 15:22:26 | 44.53673 | -117.85434 | 97° | 62km/h | 14635m | 5.2m/s | -47.2°C | 0% | 0hPa | 0V | 00:00:00 | 00:00:00 | 00:00:00 | |
| KE7DJD | 2026-08-30 15:22:04 | 44.53735 | -117.85882 | 95° | 60km/h | 14498m | 7.2m/s | -47.5°C | 0% | 0hPa | 0V | 00:00:00 | 00:00:00 | 00:00:00 | |
| KE7DJD | 2026-08-30 15:21:43 | 44.53784 | -117.86333 | 101° | 64km/h | 14369m | 5.8m/s | -48.1°C | 0% | 0hPa | 0V | 00:00:00 | 00:00:00 | 00:00:00 | |
| KE7DJD | 2026-08-30 15:21:23 | 44.53871 | -117.86786 | 99° | 64km/h | 14234m | 10.4m/s | -48.4°C | 0% | 0hPa | 0V | 00:00:00 | 00:00:00 | 00:00:00 | |
| KE7DJD | 2026-08-30 15:20:21 | 44.54076 | -117.87872 | 111° | 60km/h | 13858m | 4.0m/s | -47.2°C | 0% | 0hPa | 0V | 00:00:00 | 00:00:00 | 00:00:00 | |
| KE7DJD | 2026-08-30 15:20:00 | 44.54156 | -117.88268 | 109° | 55km/h | 13741m | 5.4m/s | -47.0°C | 0% | 0hPa | 0V | 00:00:00 | 00:00:00 | 00:00:00 | |
| KE7DJD | 2026-08-30 15:19:40 | 44.54257 | -117.88692 | 103° | 58km/h | 13616m | 8.6m/s | -47.2°C | 0% | 0hPa | 0V | 00:00:00 | 00:00:00 | 00:00:00 | |
| KE7DJD | 2026-08-30 15:19:19 | 44.54379 | -117.89100 | 124° | 58km/h | 13498m | 5.4m/s | -47.5°C | 0% | 0hPa | 0V | 00:00:00 | 00:00:00 | 00:00:00 | |
| KE7DJD | 2026-08-30 15:18:37 | 44.54688 | -117.89947 | 123° | 64km/h | 13243m | 6.6m/s | -47.6°C | 0% | 0hPa | 0V | 00:00:00 | 00:00:00 | 00:00:00 | |
| KE7DJD | 2026-08-30 15:18:17 | 44.54828 | -117.90396 | 116° | 71km/h | 13112m | 6.5m/s | -47.7°C | 0% | 0hPa | 0V | 00:00:00 | 00:00:00 | 00:00:00 | |
| KE7DJD | 2026-08-30 15:17:57 | 44.55003 | -117.90874 | 121° | 66km/h | 12976m | 5.5m/s | -48.2°C | 0% | 0hPa | 0V | 00:00:00 | 00:00:00 | 00:00:00 | |
| KE7DJD | 2026-08-30 15:17:36 | 44.55212 | -117.91308 | 127° | 62km/h | 12856m | 2.7m/s | -48.2°C | 0% | 0hPa | 0V | 00:00:00 | 00:00:00 | 00:00:00 | |
| KE7DJD | 2026-08-30 15:17:15 | 44.55452 | -117.91733 | 137° | 55km/h | 12723m | 8.9m/s | -47.4°C | 0% | 0hPa | 0V | 00:00:00 | 00:00:00 | 00:00:00 | |
| KE7DJD | 2026-08-30 15:16:55 | 44.55689 | -117.92071 | 118° | 62km/h | 12553m | 7.7m/s | -46.8°C | 0% | 0hPa | 0V | 00:00:00 | 00:00:00 | 00:00:00 | |
| KE7DJD | 2026-08-30 15:16:35 | 44.55926 | -117.92608 | 126° | 86km/h | 12405m | 4.9m/s | -47.4°C | 0% | 0hPa | 0V | 00:00:00 | 00:00:00 | 00:00:00 | |
| KE7DJD | 2026-08-30 15:16:14 | 44.56171 | -117.93172 | 116° | 88km/h | 12278m | 5.9m/s | -47.5°C | 0% | 0hPa | 0V | 00:00:00 | 00:00:00 | 00:00:00 | |
| KE7DJD | 2026-08-30 15:15:54 | 44.56397 | -117.93677 | 135° | 88km/h | 12137m | 9.3m/s | -48.2°C | 0% | 0hPa | 0V | 00:00:00 | 00:00:00 | 00:00:00 | |
| KE7DJD | 2026-08-30 15:15:33 | 44.56698 | -117.94160 | 128° | 104km/h | 11989m | 8.4m/s | -48.7°C | 0% | 0hPa | 0V | 00:00:00 | 00:00:00 | 00:00:00 | |
| KE7DJD | 2026-08-30 15:15:13 | 44.56969 | -117.94651 | 128° | 88km/h | 11835m | 9.2m/s | -48.4°C | 0% | 0hPa | 0V | 00:00:00 | 00:00:00 | 00:00:00 | |
| KE7DJD | 2026-08-30 15:14:52 | 44.57277 | -117.95040 | 133° | 80km/h | 11702m | 5.8m/s | -47.9°C | 0% | 0hPa | 0V | 00:00:00 | 00:00:00 | 00:00:00 | |
| KE7DJD | 2026-08-30 15:14:32 | 44.57673 | -117.95490 | 149° | 111km/h | 11556m | 4.1m/s | -48.5°C | 0% | 0hPa | 0V | 00:00:00 | 00:00:00 | 00:00:00 | |
| KE7DJD | 2026-08-30 15:14:11 | 44.58092 | -117.95858 | 142° | 119km/h | 11423m | 10.6m/s | -47.6°C | 0% | 0hPa | 0V | 00:00:00 | 00:00:00 | 00:00:00 | |
| KE7DJD | 2026-08-30 15:13:51 | 44.58577 | -117.96277 | 150° | 106km/h | 11274m | 10.9m/s | -46.7°C | 0% | 0hPa | 0V | 00:00:00 | 00:00:00 | 00:00:00 | |
| KE7DJD | 2026-08-30 15:13:30 | 44.59091 | -117.96690 | 146° | 126km/h | 11141m | 8.7m/s | -45.7°C | 0% | 0hPa | 0V | 00:00:00 | 00:00:00 | 00:00:00 | |
| KE7DJD | 2026-08-30 15:13:10 | 44.59626 | -117.97156 | 144° | 93km/h | 11002m | 7.4m/s | -44.8°C | 0% | 0hPa | 0V | 00:00:00 | 00:00:00 | 00:00:00 | |
| KE7DJD | 2026-08-30 15:12:49 | 44.60176 | -117.97591 | 154° | 126km/h | 10847m | 6.6m/s | -43.5°C | 0% | 0hPa | 0V | 00:00:00 | 00:00:00 | 00:00:00 | |
| KE7DJD | 2026-08-30 15:12:28 | 44.60700 | -117.98039 | 162° | 106km/h | 10695m | 4.0m/s | -42.3°C | 0% | 0hPa | 0V | 00:00:00 | 00:00:00 | 00:00:00 | |
| KE7DJD | 2026-08-30 15:12:08 | 44.61279 | -117.98464 | 151° | 120km/h | 10548m | 7.7m/s | -41.0°C | 0% | 0hPa | 0V | 00:00:00 | 00:00:00 | 00:00:00 | |
| KE7DJD | 2026-08-30 15:11:47 | 44.61794 | -117.98875 | 150° | 115km/h | 10431m | 5.3m/s | -40.0°C | 0% | 0hPa | 0V | 00:00:00 | 00:00:00 | 00:00:00 | |
| KE7DJD | 2026-08-30 15:11:27 | 44.62342 | -117.99393 | 148° | 124km/h | 10298m | 10.8m/s | -39.0°C | 0% | 0hPa | 0V | 00:00:00 | 00:00:00 | 00:00:00 | |
| KE7DJD | 2026-08-30 15:11:06 | 44.62822 | -117.99796 | 149° | 106km/h | 10136m | 7.6m/s | -37.6°C | 0% | 0hPa | 0V | 00:00:00 | 00:00:00 | 00:00:00 | |
| KE7DJD | 2026-08-30 15:10:46 | 44.63331 | -118.00233 | 148° | 100km/h | 10023m | 4.0m/s | -36.6°C | 0% | 0hPa | 0V | 00:00:00 | 00:00:00 | 00:00:00 | |
| KE7DJD | 2026-08-30 15:10:25 | 44.63831 | -118.00622 | 155° | 102km/h | 9898m | 6.3m/s | -35.6°C | 0% | 0hPa | 0V | 00:00:00 | 00:00:00 | 00:00:00 | |
| KE7DJD | 2026-08-30 15:10:05 | 44.64316 | -118.01086 | 136° | 93km/h | 9741m | 6.2m/s | -34.4°C | 0% | 0hPa | 0V | 00:00:00 | 00:00:00 | 00:00:00 | |
| KE7DJD | 2026-08-30 15:09:44 | 44.64760 | -118.01504 | 154° | 110km/h | 9593m | 5.0m/s | -33.0°C | 0% | 0hPa | 0V | 00:00:00 | 00:00:00 | 00:00:00 | |
| KE7DJD | 2026-08-30 15:09:24 | 44.65185 | -118.01958 | 142° | 130km/h | 9449m | 9.9m/s | -31.9°C | 0% | 0hPa | 0V | 00:00:00 | 00:00:00 | 00:00:00 | |
| KE7DJD | 2026-08-30 15:09:03 | 44.65620 | -118.02442 | 136° | 113km/h | 9320m | 7.0m/s | -31.3°C | 0% | 0hPa | 0V | 00:00:00 | 00:00:00 | 00:00:00 | |
| KE7DJD | 2026-08-30 15:08:43 | 44.66042 | -118.02952 | 150° | 88km/h | 9193m | 7.0m/s | -30.5°C | 0% | 0hPa | 0V | 00:00:00 | 00:00:00 | 00:00:00 | |
| KE7DJD | 2026-08-30 15:08:22 | 44.66387 | -118.03387 | 156° | 97km/h | 9049m | 8.2m/s | -29.5°C | 0% | 0hPa | 0V | 00:00:00 | 00:00:00 | 00:00:00 | |
| KE7DJD | 2026-08-30 15:07:40 | 44.67043 | -118.04293 | 136° | 69km/h | 8793m | 5.7m/s | -27.6°C | 0% | 0hPa | 0V | 00:00:00 | 00:00:00 | 00:00:00 | |
| KE7DJD | 2026-08-30 15:07:20 | 44.67310 | -118.04758 | 132° | 75km/h | 8670m | 7.3m/s | -26.5°C | 0% | 0hPa | 0V | 00:00:00 | 00:00:00 | 00:00:00 | |
| KE7DJD | 2026-08-30 15:07:00 | 44.67586 | -118.05193 | 123° | 73km/h | 8528m | 7.5m/s | -25.4°C | 0% | 0hPa | 0V | 00:00:00 | 00:00:00 | 00:00:00 | |
| KE7DJD | 2026-08-30 15:06:39 | 44.67819 | -118.05669 | 138° | 73km/h | 8404m | 4.7m/s | -24.5°C | 0% | 0hPa | 0V | 00:00:00 | 00:00:00 | 00:00:00 | |
| KE7DJD | 2026-08-30 15:06:18 | 44.68039 | -118.06161 | 136° | 66km/h | 8253m | 5.8m/s | -23.2°C | 0% | 0hPa | 0V | 00:00:00 | 00:00:00 | 00:00:00 | |
| KE7DJD | 2026-08-30 15:05:58 | 44.68235 | -118.06627 | 119° | 62km/h | 8102m | 8.3m/s | -21.8°C | 0% | 0hPa | 0V | 00:00:00 | 00:00:00 | 00:00:00 | |
| KE7DJD | 2026-08-30 15:05:38 | 44.68450 | -118.07114 | 122° | 53km/h | 7958m | 5.2m/s | -20.7°C | 0% | 0hPa | 0V | 00:00:00 | 00:00:00 | 00:00:00 | |
| KE7DJD | 2026-08-30 15:05:18 | 44.68666 | -118.07547 | 117° | 78km/h | 7811m | 5.6m/s | -19.4°C | 0% | 0hPa | 0V | 00:00:00 | 00:00:00 | 00:00:00 | |
| KE7DJD | 2026-08-30 15:04:57 | 44.68901 | -118.07974 | 134° | 86km/h | 7673m | 3.2m/s | -18.3°C | 0% | 0hPa | 0V | 00:00:00 | 00:00:00 | 00:00:00 | |
| KE7DJD | 2026-08-30 15:04:36 | 44.69144 | -118.08420 | 128° | 89km/h | 7527m | 9.4m/s | -17.2°C | 0% | 0hPa | 0V | 00:00:00 | 00:00:00 | 00:00:00 | |
| KE7DJD | 2026-08-30 15:04:16 | 44.69429 | -118.08796 | 129° | 86km/h | 7386m | 4.8m/s | -16.1°C | 0% | 0hPa | 0V | 00:00:00 | 00:00:00 | 00:00:00 | |
| KE7DJD | 2026-08-30 15:03:55 | 44.69657 | -118.09200 | 122° | 55km/h | 7252m | 4.2m/s | -14.9°C | 0% | 0hPa | 0V | 00:00:00 | 00:00:00 | 00:00:00 | |
| KE7DJD | 2026-08-30 15:03:35 | 44.69904 | -118.09575 | 139° | 77km/h | 7108m | 6.5m/s | -13.8°C | 0% | 0hPa | 0V | 00:00:00 | 00:00:00 | 00:00:00 | |
| KE7DJD | 2026-08-30 15:03:14 | 44.70203 | -118.09956 | 144° | 86km/h | 6968m | 5.2m/s | -12.7°C | 0% | 0hPa | 0V | 00:00:00 | 00:00:00 | 00:00:00 |